EST,Max TemperatureF,Mean TemperatureF,Min TemperatureF,Max Dew PointF,MeanDew PointF,Min DewpointF,Max Humidity, Mean Humidity, Min Humidity, Max Sea Level PressureIn, Mean Sea Level PressureIn, Min Sea Level PressureIn, Max VisibilityMiles, Mean VisibilityMiles, Min VisibilityMiles, Max Wind SpeedMPH, Mean Wind SpeedMPH, Max Gust SpeedMPH,PrecipitationIn, CloudCover, Events, WindDirDegrees
2012-11-1,51,40,30,36,30,24,85,65,41,29.86,29.81,29.77,10,10,10,18,9,24,0.00,4,,292
2012-11-2,46,40,33,34,30,27,86,70,51,30.13,30.00,29.86,10,10,10,13,7,,0.01,4,,322
2012-11-3,44,34,26,31,28,24,93,76,57,30.23,30.18,30.14,10,10,2,8,4,,0.00,3,,9
2012-11-4,44,34,26,29,27,23,93,74,56,30.24,30.20,30.17,10,10,8,12,3,,0.00,6,,11
2012-11-5,45,33,21,28,24,18,92,73,48,30.23,30.19,30.15,10,9,5,7,1,,0.00,0,,78
2012-11-6,46,34,21,30,26,19,89,68,49,30.14,30.03,29.94,10,9,5,10,6,,0.00,4,,129
2012-11-7,48,40,30,34,30,26,85,70,48,30.16,30.05,29.94,10,8,5,10,6,,0.00,3,Rain,60
2012-11-8,48,36,25,36,29,22,93,78,61,30.24,30.18,30.14,9,5,0,9,2,,0.00,4,Fog,225
2012-11-9,59,46,32,46,37,28,93,73,48,30.18,30.12,30.04,10,6,2,15,5,,0.02,3,Rain-Thunderstorm,154
2012-11-10,68,60,53,50,44,40,66,57,49,30.08,30.04,29.99,10,10,10,15,11,20,0.00,4,,182
2012-11-11,69,62,55,48,44,40,64,54,43,30.07,29.99,29.89,10,10,10,26,17,36,0.00,2,,177
2012-11-12,61,46,32,50,34,21,93,79,57,30.33,30.06,29.91,10,8,1,23,14,33,0.42,7,Rain-Snow,245
2012-11-13,37,32,25,23,21,19,85,65,50,30.54,30.46,30.33,10,10,10,12,8,,0.00,4,,246
2012-11-14,42,32,23,26,23,19,88,71,53,30.58,30.51,30.41,10,9,6,10,4,,0.00,0,,122
2012-11-15,44,34,23,29,25,19,93,80,53,30.43,30.39,30.35,9,4,2,6,1,,0.00,0,,156
2012-11-16,53,38,23,33,25,19,93,76,39,30.51,30.45,30.37,10,4,2,4,0,,0.00,0,,310
2012-11-17,55,40,24,33,27,21,89,71,38,30.60,30.54,30.49,10,6,2,10,2,,0.00,0,,114
2012-11-18,57,44,30,34,30,28,93,66,32,30.51,30.45,30.39,10,7,2,8,6,,0.00,0,,123
2012-11-19,57,45,33,36,32,27,82,63,41,30.38,30.29,30.15,10,9,7,7,4,,0.00,1,,142
2012-11-20,54,49,42,41,39,35,89,70,59,30.17,30.12,30.08,10,7,2,6,3,,0.00,8,,127
2012-11-21,53,43,33,45,39,32,100,92,74,30.28,30.20,30.15,4,1,0,7,1,,0.00,2,Fog,188
2012-11-22,60,51,42,46,41,39,89,72,49,30.16,30.05,29.83,10,6,2,21,10,29,0.02,2,Rain,188
2012-11-23,53,42,32,49,29,20,88,71,61,30.14,29.96,29.81,10,10,6,30,18,38,0.01,7,Rain-Snow,263
2012-11-24,32,30,28,23,21,18,72,68,64,30.21,30.16,30.08,10,10,10,16,12,,0.00,8,,271
2012-11-25,42,35,28,26,23,19,85,69,51,30.06,29.95,29.88,10,10,5,12,9,17,0.00,2,,229
2012-11-26,37,30,24,29,23,20,89,72,52,30.32,30.20,30.05,10,8,4,9,3,,0.00,5,,313
2012-11-27,36,30,24,24,20,15,73,64,50,30.41,30.33,30.29,10,10,10,7,3,,0.00,5,,283
2012-11-28,42,33,24,26,20,15,75,63,49,30.38,30.33,30.27,10,10,10,15,7,23,0.00,4,,235
2012-11-29,48,38,28,31,26,22,75,62,44,30.33,30.26,30.17,10,9,7,16,9,22,0.00,2,,185
2012-11-30,51,44,37,33,30,28,73,63,48,30.19,30.14,30.09,10,9,4,13,5,,0.00,4,,134